Time;durP1;ratioP1;P1;durP2;ratioP2;P2;SDS_P1;SDS_P2;PMS_P1;PMS_P2;Temp;Humidity;BMP_temperature;BMP_pressure;BME280_temperature;BME280_humidity;BME280_pressure;Samples;Min_cycle;Max_cycle;Signal;HPM_P1;HPM_P2
2022/10/31 00:05:17;;;;;;;4.55;1.80;;;20.00;61.20;;;;;;20653723;28;20049;-73
2022/10/31 00:15:18;;;;;;;5.47;2.53;;;20.00;61.30;;;;;;20664661;28;20050;-73
2022/10/31 00:25:20;;;;;;;3.43;1.93;;;20.00;61.30;;;;;;20673439;28;20292;-73
2022/10/31 00:35:21;;;;;;;3.35;2.00;;;20.00;61.40;;;;;;20672999;28;20793;-73
2022/10/31 00:45:22;;;;;;;2.50;1.80;;;20.00;61.40;;;;;;20650432;28;20034;-74
2022/10/31 00:55:22;;;;;;;5.68;2.38;;;20.00;61.50;;;;;;20664159;28;20629;-72
2022/10/31 01:05:23;;;;;;;3.08;1.83;;;20.00;61.50;;;;;;20667084;28;20524;-73
2022/10/31 01:15:24;;;;;;;3.00;2.03;;;19.90;61.50;;;;;;20667491;28;20130;-73
2022/10/31 01:25:25;;;;;;;3.53;1.90;;;19.90;61.50;;;;;;20686245;28;20149;-72
2022/10/31 01:35:26;;;;;;;3.13;1.60;;;19.90;61.60;;;;;;20697733;28;20343;-73
2022/10/31 01:45:26;;;;;;;3.77;2.07;;;19.90;61.60;;;;;;20656110;28;20121;-73
2022/10/31 01:55:32;;;;;;;2.17;1.60;;;19.80;61.60;;;;;;20674214;28;20045;-73
2022/10/31 02:05:33;;;;;;;2.28;1.52;;;19.80;61.60;;;;;;21015985;23;20426;-73
2022/10/31 02:15:33;;;;;;;5.63;2.25;;;19.80;61.70;;;;;;20665896;28;20129;-74
2022/10/31 02:25:51;;;;;;;4.50;2.88;;;19.80;61.70;;;;;;20644697;28;20031;-74
2022/10/31 02:36:03;;;;;;;3.30;1.92;;;19.70;61.70;;;;;;20672219;28;20035;-74
2022/10/31 02:46:14;;;;;;;3.42;2.00;;;19.70;61.70;;;;;;20654981;28;20366;-73
2022/10/31 02:56:17;;;;;;;5.10;1.92;;;19.70;61.80;;;;;;20664883;28;20042;-72
2022/10/31 03:06:44;;;;;;;3.00;1.95;;;19.70;61.80;;;;;;20665192;28;20450;-73
2022/10/31 03:16:51;;;;;;;3.83;2.00;;;19.70;61.90;;;;;;20658611;28;20046;-72
2022/10/31 03:26:53;;;;;;;3.67;2.35;;;19.60;61.90;;;;;;20672563;28;20392;-73
2022/10/31 03:36:55;;;;;;;3.58;2.25;;;19.60;62.00;;;;;;20679437;28;20038;-74
2022/10/31 03:46:56;;;;;;;5.13;2.55;;;19.60;62.00;;;;;;20654449;28;20036;-74
2022/10/31 03:57:08;;;;;;;4.88;2.78;;;19.60;62.10;;;;;;20678119;28;20031;-74
2022/10/31 04:07:08;;;;;;;5.63;2.80;;;19.60;62.20;;;;;;20687551;28;20499;-73
2022/10/31 04:17:13;;;;;;;6.10;3.40;;;19.60;62.30;;;;;;20644156;28;20065;-72
2022/10/31 04:27:16;;;;;;;10.13;3.78;;;19.50;62.40;;;;;;20680027;28;20456;-72
2022/10/31 04:37:17;;;;;;;5.15;3.47;;;19.50;63.30;;;;;;20686541;28;20481;-73
2022/10/31 04:47:17;;;;;;;7.53;4.18;;;19.50;62.70;;;;;;20677357;28;20061;-75
2022/10/31 04:57:18;;;;;;;8.52;4.60;;;19.50;62.80;;;;;;20675274;28;20107;-73
2022/10/31 05:07:20;;;;;;;10.23;4.32;;;19.50;62.90;;;;;;20672489;28;20049;-73
2022/10/31 05:17:21;;;;;;;8.98;5.13;;;19.60;62.80;;;;;;20671659;28;20030;-73
2022/10/31 05:27:46;;;;;;;8.95;4.50;;;20.30;61.40;;;;;;20683120;28;20493;-74
2022/10/31 05:37:47;;;;;;;11.20;5.47;;;20.60;60.40;;;;;;20670879;28;20046;-74
2022/10/31 05:47:53;;;;;;;11.07;5.72;;;20.90;59.60;;;;;;20665429;28;20471;-72
2022/10/31 05:58:12;;;;;;;9.88;5.00;;;21.10;59.10;;;;;;20661780;28;20034;-74
2022/10/31 06:08:16;;;;;;;10.95;4.68;;;21.20;58.80;;;;;;20700169;28;20042;-74
2022/10/31 06:18:18;;;;;;;13.98;6.60;;;21.20;58.50;;;;;;20685230;28;20468;-73
2022/10/31 06:28:21;;;;;;;9.25;5.55;;;21.20;58.40;;;;;;20667036;28;20049;-73
2022/10/31 06:38:35;;;;;;;8.50;4.72;;;21.20;58.30;;;;;;20657494;28;20063;-72
2022/10/31 06:48:41;;;;;;;9.70;5.50;;;21.20;58.30;;;;;;20663299;28;20033;-73
2022/10/31 06:58:50;;;;;;;12.02;4.32;;;21.10;58.40;;;;;;20668849;28;20734;-72
2022/10/31 07:08:59;;;;;;;11.45;6.25;;;21.10;58.40;;;;;;20654339;28;20031;-73
2022/10/31 07:19:01;;;;;;;6.50;4.30;;;21.10;58.50;;;;;;20671483;28;20087;-75
2022/10/31 07:29:02;;;;;;;10.10;6.10;;;21.00;58.60;;;;;;20655141;28;20038;-71
2022/10/31 07:39:03;;;;;;;12.35;6.85;;;21.00;58.90;;;;;;20666765;28;20038;-73
2022/10/31 07:49:06;;;;;;;11.88;6.60;;;21.00;59.60;;;;;;20647554;28;20042;-73
2022/10/31 07:59:27;;;;;;;13.63;5.68;;;21.00;59.00;;;;;;20683315;28;20050;-72
2022/10/31 08:09:28;;;;;;;7.22;5.05;;;21.00;59.10;;;;;;20665256;28;20096;-75
2022/10/31 08:19:32;;;;;;;9.98;5.40;;;20.90;59.10;;;;;;20655243;28;20068;-77
2022/10/31 08:29:33;;;;;;;8.00;4.53;;;20.90;59.20;;;;;;20666068;28;20480;-76
2022/10/31 08:39:35;;;;;;;6.60;4.65;;;20.90;59.20;;;;;;20693811;28;20042;-74
2022/10/31 08:49:35;;;;;;;9.93;4.77;;;20.90;59.20;;;;;;20685712;28;20041;-75
2022/10/31 08:59:37;;;;;;;15.45;4.85;;;20.90;59.30;;;;;;20648741;28;20046;-77
2022/10/31 09:09:58;;;;;;;14.30;6.75;;;20.70;59.40;;;;;;20677894;28;20038;-74
2022/10/31 09:19:58;;;;;;;18.45;7.55;;;20.70;60.00;;;;;;20659168;28;20149;-75
2022/10/31 09:30:08;;;;;;;15.80;6.70;;;20.70;60.30;;;;;;20657722;28;20054;-75
2022/10/31 09:40:13;;;;;;;12.93;5.88;;;20.70;60.30;;;;;;20676508;28;20042;-76
2022/10/31 09:50:26;;;;;;;9.17;4.73;;;20.70;60.10;;;;;;20653373;28;20049;-76
2022/10/31 10:00:28;;;;;;;10.73;5.00;;;20.70;60.10;;;;;;20683636;28;20033;-76
2022/10/31 10:10:44;;;;;;;8.98;3.63;;;20.70;60.10;;;;;;20674449;28;20377;-75
2022/10/31 10:20:53;;;;;;;8.97;4.33;;;20.60;60.10;;;;;;20647469;28;20043;-74
2022/10/31 10:31:00;;;;;;;9.63;4.03;;;20.60;60.20;;;;;;20680693;28;20664;-78
2022/10/31 10:41:07;;;;;;;8.10;4.97;;;20.60;60.20;;;;;;20687786;28;20038;-77
2022/10/31 10:51:15;;;;;;;6.97;3.95;;;20.50;60.30;;;;;;20657386;28;20112;-74
2022/10/31 11:01:16;;;;;;;9.07;4.50;;;20.50;60.30;;;;;;20672457;28;20045;-75
2022/10/31 11:11:17;;;;;;;8.90;4.10;;;20.50;60.30;;;;;;20668940;28;20034;-74
2022/10/31 11:21:21;;;;;;;6.10;3.92;;;20.60;61.00;;;;;;20657243;28;20042;-74
2022/10/31 11:31:23;;;;;;;6.65;3.80;;;20.50;60.30;;;;;;20675258;28;20049;-75
2022/10/31 11:41:34;;;;;;;5.63;3.50;;;20.50;60.30;;;;;;20648543;28;20050;-75
2022/10/31 11:51:35;;;;;;;6.25;3.72;;;20.50;60.20;;;;;;20643610;28;20038;-73
2022/10/31 12:01:39;;;;;;;6.38;3.45;;;20.50;60.10;;;;;;20692827;28;20046;-82
2022/10/31 12:11:50;;;;;;;4.38;2.78;;;20.60;60.10;;;;;;20683602;28;20046;-83
2022/10/31 12:22:04;;;;;;;6.35;3.78;;;20.60;60.10;;;;;;20718891;28;20069;-83
2022/10/31 12:32:24;;;;;;;6.00;3.33;;;20.70;59.80;;;;;;20702835;28;20056;-82
2022/10/31 12:43:02;;;;;;;6.43;3.33;;;20.70;59.60;;;;;;20692825;28;20034;-82
2022/10/31 12:53:14;;;;;;;5.95;3.00;;;20.80;59.50;;;;;;20713558;28;20172;-83
2022/10/31 13:03:28;;;;;;;5.15;3.03;;;20.80;59.30;;;;;;20737802;28;20049;-82
2022/10/31 13:13:38;;;;;;;4.95;3.03;;;20.90;59.10;;;;;;20706452;28;20045;-83
2022/10/31 13:23:40;;;;;;;5.38;2.63;;;20.90;58.90;;;;;;20683792;28;20026;-83
2022/10/31 13:33:53;;;;;;;4.72;2.20;;;21.00;58.80;;;;;;20724436;28;20056;-83
2022/10/31 13:44:00;;;;;;;3.67;2.50;;;21.00;58.70;;;;;;20703402;28;20031;-82
2022/10/31 13:54:37;;;;;;;3.58;2.65;;;21.00;58.60;;;;;;20711770;28;20664;-83
2022/10/31 14:04:43;;;;;;;4.28;2.50;;;21.00;58.50;;;;;;20688496;28;20034;-82
2022/10/31 14:14:47;;;;;;;3.65;2.25;;;21.00;58.50;;;;;;20669289;28;20035;-83
2022/10/31 14:24:49;;;;;;;4.07;2.40;;;21.00;58.40;;;;;;20692205;28;20077;-81
2022/10/31 14:34:50;;;;;;;3.72;2.08;;;21.00;58.40;;;;;;20698772;28;20046;-83
2022/10/31 14:45:09;;;;;;;3.88;2.20;;;21.00;58.40;;;;;;20728580;28;20035;-81
2022/10/31 14:55:11;;;;;;;4.38;2.30;;;21.00;58.50;;;;;;20708656;28;20542;-83
2022/10/31 15:05:12;;;;;;;3.33;2.28;;;21.00;58.50;;;;;;20685925;28;20507;-82
2022/10/31 15:15:14;;;;;;;3.65;1.98;;;21.00;58.60;;;;;;20680988;28;20471;-82
2022/10/31 15:25:20;;;;;;;3.38;2.10;;;21.00;58.60;;;;;;20721073;28;20134;-78
2022/10/31 15:35:30;;;;;;;2.78;1.80;;;21.00;58.60;;;;;;20676134;28;20077;-74
2022/10/31 15:45:31;;;;;;;3.95;2.30;;;20.90;58.60;;;;;;20673564;28;20044;-75
2022/10/31 15:55:38;;;;;;;3.92;2.22;;;20.90;58.70;;;;;;20660023;28;20070;-77
2022/10/31 16:05:54;;;;;;;3.05;2.20;;;20.90;58.80;;;;;;20690967;28;20045;-77
2022/10/31 16:16:01;;;;;;;3.47;2.00;;;20.80;58.80;;;;;;20674895;28;20041;-78
2022/10/31 16:26:05;;;;;;;2.90;1.67;;;20.80;58.90;;;;;;20687569;28;20026;-77
2022/10/31 16:36:30;;;;;;;4.80;2.05;;;20.80;59.10;;;;;;20659682;28;20058;-74
2022/10/31 16:46:31;;;;;;;3.42;1.92;;;20.80;59.10;;;;;;20636288;28;20030;-76
2022/10/31 16:56:33;;;;;;;5.15;1.80;;;20.80;59.10;;;;;;20662014;28;20040;-73
2022/10/31 17:06:35;;;;;;;4.00;2.08;;;20.70;59.10;;;;;;20655036;28;20041;-74
2022/10/31 17:16:36;;;;;;;3.20;1.90;;;20.70;59.20;;;;;;20693095;28;20046;-74
2022/10/31 17:26:37;;;;;;;2.92;2.20;;;20.70;59.20;;;;;;20658576;28;20041;-74
2022/10/31 17:36:37;;;;;;;3.35;2.17;;;20.70;59.30;;;;;;20656966;28;20041;-73
2022/10/31 17:46:39;;;;;;;4.07;2.40;;;20.70;59.30;;;;;;20687595;28;20038;-74
2022/10/31 17:56:40;;;;;;;4.40;2.35;;;20.60;59.30;;;;;;20671766;28;20481;-75
2022/10/31 18:06:41;;;;;;;4.07;2.20;;;20.60;59.30;;;;;;20678414;28;20037;-75
2022/10/31 18:16:42;;;;;;;3.13;1.73;;;20.60;59.40;;;;;;20662745;28;20433;-75
2022/10/31 18:26:42;;;;;;;3.40;1.77;;;20.60;59.50;;;;;;20680190;28;20421;-72
2022/10/31 18:36:43;;;;;;;2.58;1.88;;;20.60;59.50;;;;;;20663162;28;20038;-73
2022/10/31 18:46:45;;;;;;;7.70;3.53;;;20.60;59.60;;;;;;20668205;28;20112;-73
2022/10/31 18:56:45;;;;;;;2.53;1.55;;;20.50;59.60;;;;;;20651890;28;20035;-73
2022/10/31 19:06:46;;;;;;;3.50;2.07;;;20.50;59.60;;;;;;20682300;28;20088;-73
2022/10/31 19:16:48;;;;;;;4.82;2.20;;;20.50;59.70;;;;;;20662024;28;20313;-74
2022/10/31 19:26:48;;;;;;;3.63;2.33;;;20.50;59.80;;;;;;20672262;28;20459;-74
2022/10/31 19:36:49;;;;;;;3.58;2.17;;;20.50;59.80;;;;;;20683785;28;20103;-73
2022/10/31 19:46:50;;;;;;;3.25;2.00;;;20.50;59.80;;;;;;20637239;28;20041;-74
2022/10/31 19:56:51;;;;;;;5.63;2.05;;;20.40;59.80;;;;;;20665804;28;20436;-75
2022/10/31 20:06:53;;;;;;;2.95;2.15;;;20.50;59.90;;;;;;20679064;28;20100;-74
2022/10/31 20:16:53;;;;;;;5.88;2.20;;;20.40;59.90;;;;;;20676384;28;20073;-74
2022/10/31 20:26:54;;;;;;;4.13;2.27;;;20.40;59.90;;;;;;20658241;28;20037;-75
2022/10/31 20:36:54;;;;;;;5.00;2.23;;;20.40;60.00;;;;;;20675208;28;20640;-74
2022/10/31 20:46:55;;;;;;;3.93;2.53;;;20.40;60.00;;;;;;20643698;28;20364;-74
2022/10/31 20:56:56;;;;;;;2.57;1.53;;;20.30;60.00;;;;;;20660834;28;20038;-73
2022/10/31 21:06:56;;;;;;;4.30;2.50;;;20.40;60.10;;;;;;20672426;28;20289;-76
2022/10/31 21:16:57;;;;;;;4.93;3.03;;;20.40;60.10;;;;;;20689817;28;20049;-75
2022/10/31 21:26:58;;;;;;;6.45;3.15;;;20.40;60.20;;;;;;20677365;28;20648;-74
2022/10/31 21:36:58;;;;;;;5.50;3.07;;;20.30;60.20;;;;;;20685161;28;20034;-74
2022/10/31 21:46:59;;;;;;;6.50;3.30;;;20.30;60.20;;;;;;20671081;28;20877;-74
2022/10/31 21:57:00;;;;;;;4.57;2.40;;;20.30;60.30;;;;;;20678387;28;20360;-74
2022/10/31 22:07:01;;;;;;;4.10;2.75;;;20.30;60.30;;;;;;20684575;28;20100;-75
2022/10/31 22:17:02;;;;;;;5.00;2.88;;;20.30;60.40;;;;;;20649532;28;20129;-74
2022/10/31 22:27:02;;;;;;;5.50;2.87;;;20.30;60.40;;;;;;20675651;28;20030;-74
2022/10/31 22:37:03;;;;;;;4.85;3.05;;;20.20;60.30;;;;;;20656641;28;20329;-74
2022/10/31 22:47:04;;;;;;;7.10;3.83;;;20.20;60.40;;;;;;20676749;28;20117;-73
2022/10/31 22:57:04;;;;;;;6.07;3.42;;;20.20;60.50;;;;;;20655535;28;20042;-75
2022/10/31 23:07:06;;;;;;;5.90;3.30;;;20.20;60.50;;;;;;20683783;28;20501;-74
2022/10/31 23:17:06;;;;;;;4.45;2.80;;;20.20;60.50;;;;;;20665305;28;20073;-75
2022/10/31 23:27:18;;;;;;;7.07;4.00;;;20.20;60.60;;;;;;20684799;28;20105;-75
2022/10/31 23:37:20;;;;;;;5.80;3.40;;;20.20;60.60;;;;;;20644849;28;20160;-74
2022/10/31 23:47:21;;;;;;;5.25;3.38;;;20.10;60.50;;;;;;20668938;28;20512;-75
2022/10/31 23:57:22;;;;;;;6.20;3.00;;;20.10;60.60;;;;;;20659170;28;20038;-76
